createdAt,value
2018-12-09T00:00:43.118Z,5.60
2018-12-09T00:03:10.660Z,3.03
2018-12-09T00:05:38.223Z,4.73
2018-12-09T00:08:05.852Z,4.27
2018-12-09T00:10:33.418Z,4.20
2018-12-09T00:13:00.875Z,3.13
2018-12-09T00:15:28.355Z,5.43
2018-12-09T00:17:55.812Z,4.00
2018-12-09T00:20:23.262Z,6.30
2018-12-09T00:22:50.734Z,10.77
2018-12-09T00:25:18.194Z,9.37
2018-12-09T00:34:41.338Z,11.13
2018-12-09T00:39:42.380Z,11.27
2018-12-09T00:42:09.855Z,12.50
2018-12-09T00:44:38.126Z,8.57
2018-12-09T00:47:05.923Z,7.27
2018-12-09T00:49:33.432Z,10.17
2018-12-09T00:52:00.890Z,12.57
2018-12-09T00:54:28.376Z,12.97
2018-12-09T00:56:55.826Z,13.43
2018-12-09T00:59:23.301Z,14.83
2018-12-09T01:01:50.795Z,15.60
2018-12-09T01:04:18.524Z,8.33
2018-12-09T01:06:46.028Z,23.80
2018-12-09T01:09:13.547Z,17.93
2018-12-09T01:11:41.018Z,16.37
2018-12-09T01:14:08.511Z,20.27
2018-12-09T01:16:35.972Z,10.63
2018-12-09T01:19:03.690Z,25.27
2018-12-09T01:21:31.159Z,22.20
2018-12-09T01:23:58.630Z,13.33
2018-12-09T01:26:26.506Z,16.20
2018-12-09T01:28:53.983Z,20.50
2018-12-09T01:31:21.467Z,24.80
2018-12-09T01:33:48.948Z,21.80
2018-12-09T01:36:16.459Z,18.03
2018-12-09T01:38:44.346Z,10.80
2018-12-09T01:41:11.819Z,21.53
2018-12-09T01:43:39.309Z,21.60
2018-12-09T01:46:06.790Z,18.00
2018-12-09T01:48:34.269Z,10.93
2018-12-09T01:51:01.751Z,15.30
2018-12-09T01:56:31.518Z,14.10
2018-12-09T01:58:58.986Z,11.73
2018-12-09T02:01:26.466Z,15.83
2018-12-09T02:03:53.937Z,7.83
2018-12-09T02:06:21.427Z,19.17
2018-12-09T02:08:48.904Z,15.47
2018-12-09T02:11:20.537Z,16.23
2018-12-09T02:13:48.023Z,21.73
2018-12-09T02:16:15.502Z,8.47
2018-12-09T02:18:44.046Z,13.43
2018-12-09T02:21:12.059Z,13.00
2018-12-09T02:23:39.523Z,17.73
2018-12-09T02:26:07.002Z,18.60
2018-12-09T02:28:34.589Z,12.67
2018-12-09T02:31:02.359Z,12.60
2018-12-09T02:33:29.839Z,11.47
2018-12-09T02:35:57.376Z,11.40
2018-12-09T02:38:24.860Z,16.17
2018-12-09T02:40:52.318Z,11.10
2018-12-09T02:43:19.801Z,15.70
2018-12-09T02:45:47.267Z,11.17
2018-12-09T02:48:14.734Z,18.80
2018-12-09T02:50:42.312Z,8.80
2018-12-09T02:53:09.927Z,9.50
2018-12-09T02:55:37.398Z,18.80
2018-12-09T02:58:04.935Z,14.53
2018-12-09T03:00:32.988Z,12.37
2018-12-09T03:03:00.447Z,14.53
2018-12-09T03:05:27.926Z,7.77
2018-12-09T03:07:55.471Z,15.23
2018-12-09T03:10:22.946Z,5.90
2018-12-09T03:12:50.498Z,11.60
2018-12-09T03:15:17.994Z,8.03
2018-12-09T03:17:45.868Z,14.23
2018-12-09T03:20:13.335Z,15.90
2018-12-09T03:22:40.813Z,14.87
2018-12-09T03:25:08.281Z,14.43
2018-12-09T03:27:35.822Z,9.83
2018-12-09T03:30:04.159Z,7.33
2018-12-09T03:32:31.636Z,11.37
2018-12-09T03:34:59.363Z,9.10
2018-12-09T03:37:26.838Z,10.27
2018-12-09T03:39:54.417Z,15.00
2018-12-09T03:42:22.310Z,7.00
2018-12-09T03:44:49.806Z,9.60
2018-12-09T03:47:17.264Z,15.80
2018-12-09T03:49:44.747Z,16.93
2018-12-09T03:52:12.312Z,10.77
2018-12-09T03:54:40.090Z,13.40
2018-12-09T03:57:07.548Z,15.87
2018-12-09T03:59:35.024Z,19.20
2018-12-09T04:02:02.499Z,8.83
2018-12-09T04:04:29.979Z,14.70
2018-12-09T04:06:57.848Z,7.73
2018-12-09T04:09:25.307Z,11.93
2018-12-09T04:18:51.479Z,4.60
2018-12-09T04:21:18.960Z,9.57
2018-12-09T04:23:46.822Z,2.10
2018-12-09T04:26:14.280Z,6.13
2018-12-09T04:28:41.749Z,5.80
2018-12-09T04:31:09.203Z,4.50
2018-12-09T04:33:36.678Z,6.30
2018-12-09T04:36:04.438Z,5.73
2018-12-09T04:38:32.027Z,5.40
2018-12-09T04:40:59.599Z,4.43
2018-12-09T04:43:27.074Z,5.83
2018-12-09T04:45:54.531Z,5.37
2018-12-09T04:48:22.196Z,7.80
2018-12-09T04:50:49.667Z,5.27
2018-12-09T04:53:17.122Z,3.67
2018-12-09T04:55:44.875Z,6.20
2018-12-09T04:58:12.406Z,8.77
2018-12-09T05:00:54.461Z,6.20
2018-12-09T05:03:22.775Z,9.97
2018-12-09T05:05:50.275Z,13.43
2018-12-09T05:08:17.726Z,10.27
2018-12-09T05:10:45.212Z,5.03
2018-12-09T05:13:12.776Z,11.77
2018-12-09T05:15:40.310Z,14.60
2018-12-09T05:18:07.863Z,15.23
2018-12-09T05:20:35.805Z,13.13
2018-12-09T05:23:03.290Z,16.90
2018-12-09T05:25:30.750Z,32.53
2018-12-09T05:27:58.279Z,13.97
2018-12-09T05:30:25.763Z,11.53
2018-12-09T05:32:53.233Z,16.97
2018-12-09T05:35:21.106Z,13.47
2018-12-09T05:37:48.567Z,16.10
2018-12-09T05:40:16.042Z,14.60
2018-12-09T05:42:43.494Z,15.00
2018-12-09T05:45:10.971Z,11.33
2018-12-09T05:47:38.787Z,9.90
2018-12-09T05:50:06.330Z,7.73
2018-12-09T05:52:33.790Z,18.13
2018-12-09T05:55:01.275Z,12.17
2018-12-09T05:57:28.746Z,11.23
2018-12-09T05:59:56.226Z,10.00
2018-12-09T06:02:35.842Z,13.80
2018-12-09T06:05:04.083Z,7.70
2018-12-09T06:07:31.553Z,10.60
2018-12-09T06:09:59.024Z,10.30
2018-12-09T06:12:26.496Z,14.73
2018-12-09T06:14:53.950Z,14.33
2018-12-09T06:17:21.426Z,21.73
2018-12-09T06:19:48.887Z,17.87
2018-12-09T06:22:16.362Z,17.93
2018-12-09T06:24:43.822Z,17.97
2018-12-09T06:27:11.331Z,22.03
2018-12-09T06:29:38.803Z,22.33
2018-12-09T06:32:06.279Z,33.20
2018-12-09T06:34:33.750Z,19.60
2018-12-09T06:37:01.207Z,16.93
2018-12-09T06:39:28.683Z,20.10
2018-12-09T06:41:56.160Z,16.60
2018-12-09T06:44:23.634Z,21.50
2018-12-09T06:46:51.103Z,15.43
2018-12-09T06:49:19.080Z,7.33
2018-12-09T06:51:46.534Z,18.47
2018-12-09T06:54:14.019Z,15.80
2018-12-09T06:56:41.512Z,15.83
2018-12-09T06:59:09.099Z,12.30
2018-12-09T07:01:36.662Z,13.00
2018-12-09T07:04:04.122Z,11.60
2018-12-09T07:06:31.628Z,14.90
2018-12-09T07:08:59.171Z,11.93
2018-12-09T07:11:26.638Z,8.73
2018-12-09T07:13:54.098Z,12.07
2018-12-09T07:16:21.883Z,13.27
2018-12-09T07:18:49.359Z,18.27
2018-12-09T07:21:17.859Z,17.00
2018-12-09T07:23:45.326Z,9.87
2018-12-09T07:26:12.814Z,12.77
2018-12-09T07:28:40.683Z,16.80
2018-12-09T07:31:08.145Z,11.60
2018-12-09T07:33:35.622Z,18.83
2018-12-09T07:36:03.181Z,15.30
2018-12-09T07:38:30.666Z,6.70
2018-12-09T07:40:58.129Z,11.07
2018-12-09T07:43:25.704Z,12.23
2018-12-09T07:45:53.162Z,10.23
2018-12-09T07:48:20.630Z,8.30
2018-12-09T07:50:48.090Z,12.20
2018-12-09T07:53:15.620Z,13.33
2018-12-09T07:55:43.185Z,9.70
2018-12-09T07:58:10.638Z,13.30
2018-12-09T08:00:38.115Z,8.77
2018-12-09T08:03:06.113Z,13.23
2018-12-09T08:05:33.777Z,11.20
2018-12-09T08:08:01.243Z,11.13
2018-12-09T08:10:28.730Z,6.80
2018-12-09T08:12:56.195Z,12.40
2018-12-09T08:15:23.675Z,16.60
2018-12-09T08:17:51.134Z,10.17
2018-12-09T08:20:18.631Z,13.37
2018-12-09T08:22:46.090Z,11.30
2018-12-09T08:25:13.552Z,13.23
2018-12-09T08:27:41.025Z,9.20
2018-12-09T08:30:08.752Z,11.40
2018-12-09T08:32:36.352Z,9.23
2018-12-09T08:35:03.896Z,11.20
2018-12-09T08:37:31.366Z,13.53
2018-12-09T08:39:59.974Z,11.77
2018-12-09T08:42:27.447Z,12.30
2018-12-09T08:44:54.914Z,16.40
2018-12-09T08:47:22.460Z,9.33
2018-12-09T08:49:49.928Z,13.13
2018-12-09T08:52:17.418Z,14.13
2018-12-09T08:54:44.874Z,12.30
2018-12-09T08:57:12.341Z,8.60
2018-12-09T08:59:39.860Z,9.37
2018-12-09T09:02:07.323Z,19.70
2018-12-09T09:04:34.800Z,12.90
2018-12-09T09:07:02.262Z,12.03
2018-12-09T09:09:29.735Z,9.67
2018-12-09T09:11:57.308Z,8.47
2018-12-09T09:14:24.780Z,13.33
2018-12-09T09:16:52.315Z,8.60
2018-12-09T09:19:19.794Z,11.07
2018-12-09T09:21:47.266Z,10.67
2018-12-09T09:24:14.781Z,10.53
2018-12-09T09:26:42.239Z,11.73
2018-12-09T09:29:09.707Z,9.60
2018-12-09T09:31:37.185Z,5.50
2018-12-09T09:34:04.671Z,9.87
2018-12-09T09:36:32.128Z,8.03
2018-12-09T09:38:59.595Z,10.87
2018-12-09T09:41:27.077Z,11.27
2018-12-09T09:43:54.527Z,8.13
2018-12-09T09:46:22.010Z,4.70
2018-12-09T09:48:49.458Z,7.30
2018-12-09T09:51:16.940Z,4.60
2018-12-09T09:53:44.423Z,8.40
2018-12-09T09:56:13.247Z,7.00
2018-12-09T09:58:40.839Z,8.90
2018-12-09T10:01:08.326Z,9.87
2018-12-09T10:03:35.781Z,21.73
2018-12-09T10:06:03.267Z,11.50
2018-12-09T10:08:30.724Z,8.60
2018-12-09T10:10:58.183Z,15.20
2018-12-09T10:13:25.795Z,7.90
2018-12-09T10:15:53.284Z,7.93
2018-12-09T10:18:20.754Z,15.50
2018-12-09T10:20:48.236Z,9.40
2018-12-09T10:23:16.141Z,11.30
2018-12-09T10:25:43.922Z,13.70
2018-12-09T10:28:11.625Z,12.33
2018-12-09T10:30:39.114Z,13.03
2018-12-09T10:33:06.693Z,13.23
2018-12-09T10:35:34.225Z,12.20
2018-12-09T10:38:01.684Z,9.57
2018-12-09T10:40:29.162Z,14.13
2018-12-09T10:42:56.654Z,11.70
2018-12-09T10:45:24.181Z,13.10
2018-12-09T10:47:51.635Z,5.23
2018-12-09T10:50:19.108Z,11.97
2018-12-09T10:52:46.577Z,10.20
2018-12-09T10:55:15.072Z,7.40
2018-12-09T10:57:42.617Z,7.90
2018-12-09T11:00:12.109Z,6.83
2018-12-09T11:02:39.572Z,5.00
2018-12-09T11:05:07.068Z,7.77
2018-12-09T11:07:34.541Z,7.30
2018-12-09T11:10:02.005Z,3.50
2018-12-09T11:12:29.469Z,4.23
2018-12-09T11:14:56.926Z,5.33
2018-12-09T11:17:24.471Z,6.00
2018-12-09T11:19:51.931Z,4.90
2018-12-09T11:22:19.421Z,5.93
2018-12-09T11:24:46.978Z,2.53
2018-12-09T11:27:14.548Z,1.90
2018-12-09T11:29:42.946Z,3.13
2018-12-09T11:32:10.402Z,5.50
2018-12-09T11:34:37.875Z,5.83
2018-12-09T11:37:05.331Z,4.77
2018-12-09T11:39:32.809Z,2.90
2018-12-09T11:42:00.254Z,1.57
2018-12-09T11:44:27.792Z,4.10
2018-12-09T11:46:55.401Z,1.90
2018-12-09T11:49:22.945Z,2.00
2018-12-09T11:51:50.555Z,3.93
2018-12-09T11:54:18.102Z,2.27
2018-12-09T11:56:45.710Z,1.03
2018-12-09T11:59:13.294Z,3.27
2018-12-09T12:01:40.758Z,3.97
2018-12-09T12:04:08.361Z,1.30
2018-12-09T12:06:35.852Z,2.67
2018-12-09T12:09:05.015Z,4.00
2018-12-09T12:11:32.495Z,1.27
2018-12-09T12:14:00.057Z,1.60
2018-12-09T12:16:27.529Z,1.13
2018-12-09T12:18:54.983Z,2.17
2018-12-09T12:21:22.459Z,1.87
2018-12-09T12:23:49.967Z,1.00
2018-12-09T12:26:17.427Z,1.80
2018-12-09T12:28:44.901Z,4.00
2018-12-09T12:31:12.448Z,2.37
2018-12-09T12:33:39.922Z,2.27
2018-12-09T12:36:07.396Z,3.07
2018-12-09T12:38:34.858Z,2.03
2018-12-09T12:41:02.334Z,2.03
2018-12-09T12:43:30.864Z,2.97
2018-12-09T12:45:58.336Z,5.80
2018-12-09T12:48:25.802Z,3.00
2018-12-09T12:50:53.323Z,5.90
2018-12-09T12:53:20.903Z,2.60
2018-12-09T12:55:48.375Z,4.10
2018-12-09T12:58:15.851Z,5.37
2018-12-09T13:00:43.305Z,3.45
2018-12-09T13:03:10.859Z,5.13
2018-12-09T13:05:38.311Z,2.80
2018-12-09T13:08:05.781Z,4.47
2018-12-09T13:10:33.230Z,4.30
2018-12-09T13:13:00.706Z,5.20
2018-12-09T13:15:28.168Z,7.50
2018-12-09T13:17:56.391Z,4.20
2018-12-09T13:20:23.918Z,1.80
2018-12-09T13:22:51.410Z,2.47
2018-12-09T13:25:18.901Z,2.50
2018-12-09T13:27:46.377Z,1.60
2018-12-09T13:30:13.835Z,2.27
2018-12-09T13:32:41.391Z,3.57
2018-12-09T13:35:08.847Z,4.47
2018-12-09T13:37:36.318Z,1.47
2018-12-09T13:40:03.935Z,1.60
2018-12-09T13:42:31.407Z,3.10
2018-12-09T13:44:58.873Z,1.53
2018-12-09T13:47:26.340Z,1.77
2018-12-09T13:49:55.303Z,5.50
2018-12-09T13:52:22.767Z,1.70
2018-12-09T13:54:50.286Z,2.20
2018-12-09T13:57:17.769Z,2.03
2018-12-09T13:59:45.251Z,3.27
2018-12-09T14:02:13.835Z,2.63
2018-12-09T14:04:41.310Z,1.97
2018-12-09T14:07:08.768Z,2.50
2018-12-09T14:09:36.246Z,2.03
2018-12-09T14:12:03.704Z,6.20
2018-12-09T14:14:31.204Z,3.90
2018-12-09T14:16:58.770Z,4.27
2018-12-09T14:19:26.231Z,7.13
2018-12-09T14:21:53.708Z,4.37
2018-12-09T14:24:21.276Z,8.90
2018-12-09T14:26:48.800Z,4.67
2018-12-09T14:29:16.471Z,3.97
2018-12-09T14:31:45.356Z,2.07
2018-12-09T14:34:12.822Z,2.93
2018-12-09T14:36:40.337Z,4.80
2018-12-09T14:39:07.819Z,3.80
2018-12-09T14:41:35.364Z,2.87
2018-12-09T14:44:02.906Z,2.80
2018-12-09T14:46:30.402Z,3.27
2018-12-09T14:48:57.886Z,2.90
2018-12-09T14:51:25.351Z,5.20
2018-12-09T14:53:52.829Z,3.87
2018-12-09T14:56:20.282Z,3.30
2018-12-09T14:58:47.758Z,4.60
2018-12-09T15:01:15.246Z,7.23
2018-12-09T15:03:42.726Z,8.37
2018-12-09T15:06:11.139Z,4.53
2018-12-09T15:08:38.627Z,3.03
2018-12-09T15:11:06.093Z,8.80
2018-12-09T15:13:33.543Z,3.37
2018-12-09T15:16:01.042Z,10.47
2018-12-09T15:18:28.617Z,5.97
2018-12-09T15:20:56.076Z,11.60
2018-12-09T15:23:23.542Z,6.93
2018-12-09T15:25:51.052Z,9.60
2018-12-09T15:28:18.535Z,3.90
2018-12-09T15:30:45.998Z,4.97
2018-12-09T15:33:13.525Z,8.00
2018-12-09T15:35:41.008Z,8.70
2018-12-09T15:38:08.553Z,9.07
2018-12-09T15:40:36.061Z,7.00
2018-12-09T15:43:03.527Z,9.23
2018-12-09T15:45:30.997Z,3.80
2018-12-09T15:47:58.459Z,7.00
2018-12-09T15:50:26.013Z,6.13
2018-12-09T15:52:53.470Z,6.13
2018-12-09T15:55:20.966Z,8.10
2018-12-09T15:57:48.435Z,11.73
2018-12-09T16:00:15.886Z,5.47
2018-12-09T16:02:43.370Z,11.80
2018-12-09T16:05:10.901Z,5.47
2018-12-09T16:07:38.631Z,8.93
2018-12-09T16:10:07.905Z,9.77
2018-12-09T16:12:35.386Z,9.97
2018-12-09T16:15:02.939Z,9.60
2018-12-09T16:17:30.415Z,8.10
2018-12-09T16:19:58.055Z,3.70
2018-12-09T16:22:25.524Z,4.97
2018-12-09T16:24:52.994Z,8.60
2018-12-09T16:27:20.446Z,5.57
2018-12-09T16:29:48.023Z,10.23
2018-12-09T16:32:16.698Z,6.17
2018-12-09T16:34:44.220Z,7.10
2018-12-09T16:37:11.686Z,7.60
2018-12-09T16:39:39.318Z,6.60
2018-12-09T16:42:06.870Z,8.13
2018-12-09T16:44:34.334Z,4.37
2018-12-09T16:47:01.827Z,6.07
2018-12-09T16:49:29.305Z,9.97
2018-12-09T16:51:56.771Z,8.47
2018-12-09T16:54:24.272Z,9.77
2018-12-09T16:56:51.762Z,5.43
2018-12-09T16:59:19.222Z,7.57
2018-12-09T17:01:46.705Z,10.27
2018-12-09T17:04:14.754Z,11.80
2018-12-09T17:06:42.245Z,11.57
2018-12-09T17:09:11.006Z,15.57
2018-12-09T17:11:38.697Z,11.33
2018-12-09T17:14:06.319Z,15.93
2018-12-09T17:16:34.068Z,5.47
2018-12-09T17:19:01.671Z,8.80
2018-12-09T17:21:29.309Z,9.33
2018-12-09T17:23:56.962Z,7.27
2018-12-09T17:26:24.430Z,5.57
2018-12-09T17:28:51.901Z,9.50
2018-12-09T17:31:19.640Z,5.80
2018-12-09T17:33:47.144Z,9.00
2018-12-09T17:36:14.637Z,14.90
2018-12-09T17:38:42.127Z,17.83
2018-12-09T17:41:09.752Z,7.83
2018-12-09T17:43:37.227Z,11.00
2018-12-09T17:46:04.791Z,9.30
2018-12-09T17:48:32.352Z,6.40
2018-12-09T17:50:59.818Z,11.37
2018-12-09T17:53:27.342Z,14.70
2018-12-09T17:55:54.803Z,7.73
2018-12-09T17:58:22.267Z,9.90
2018-12-09T18:00:49.762Z,6.17
2018-12-09T18:03:17.231Z,14.43
2018-12-09T18:05:44.712Z,9.93
2018-12-09T18:08:12.194Z,11.03
2018-12-09T18:10:39.697Z,5.80
2018-12-09T18:13:07.174Z,7.20
2018-12-09T18:15:34.687Z,4.73
2018-12-09T18:18:02.142Z,6.00
2018-12-09T18:20:29.628Z,12.50
2018-12-09T18:22:57.130Z,11.40
2018-12-09T18:25:24.628Z,9.90
2018-12-09T18:27:52.102Z,9.40
2018-12-09T18:30:19.632Z,8.47
2018-12-09T18:32:47.120Z,14.40
2018-12-09T18:35:14.579Z,8.00
2018-12-09T18:37:42.039Z,8.93
2018-12-09T18:40:09.595Z,13.43
2018-12-09T18:42:37.052Z,9.80
2018-12-09T18:45:04.878Z,13.27
2018-12-09T18:47:32.329Z,8.80
2018-12-09T18:49:59.815Z,8.93
2018-12-09T18:52:27.290Z,5.13
2018-12-09T18:54:54.758Z,7.40
2018-12-09T18:57:22.269Z,11.60
2018-12-09T18:59:49.738Z,8.90
2018-12-09T19:02:17.231Z,8.07
2018-12-09T19:04:45.102Z,12.03
2018-12-09T19:07:12.900Z,12.70
2018-12-09T19:09:40.426Z,6.87
2018-12-09T19:12:08.027Z,10.47
2018-12-09T19:17:08.951Z,10.50
2018-12-09T19:19:36.459Z,7.55
2018-12-09T19:22:03.951Z,8.43
2018-12-09T19:24:31.487Z,10.03
2018-12-09T19:26:59.121Z,7.25
2018-12-09T19:29:26.772Z,6.03
2018-12-09T19:31:54.258Z,6.97
2018-12-09T19:34:22.757Z,9.90
2018-12-09T19:36:50.225Z,7.73
2018-12-09T19:39:17.839Z,11.43
2018-12-09T19:41:45.354Z,5.50
2018-12-09T19:44:13.007Z,7.23
2018-12-09T19:46:40.485Z,10.43
2018-12-09T19:49:07.947Z,7.00
2018-12-09T19:51:35.480Z,8.83
2018-12-09T19:54:03.202Z,11.07
2018-12-09T19:56:30.696Z,9.80
2018-12-09T19:58:58.179Z,10.10
2018-12-09T20:01:25.657Z,9.53
2018-12-09T20:03:53.140Z,11.30
2018-12-09T20:06:20.650Z,10.07
2018-12-09T20:08:48.144Z,8.13
2018-12-09T20:11:15.607Z,8.13
2018-12-09T20:13:43.130Z,9.67
2018-12-09T20:16:10.600Z,11.23
2018-12-09T20:18:38.123Z,9.77
2018-12-09T20:21:05.692Z,9.33
2018-12-09T20:23:33.157Z,5.40
2018-12-09T20:26:00.622Z,7.40
2018-12-09T20:28:28.113Z,11.20
2018-12-09T20:30:55.595Z,15.93
2018-12-09T20:33:26.084Z,6.13
2018-12-09T20:35:53.893Z,4.63
2018-12-09T20:38:22.366Z,11.13
2018-12-09T20:40:49.896Z,4.33
2018-12-09T20:43:17.453Z,6.00
2018-12-09T20:45:44.914Z,7.17
2018-12-09T20:48:13.626Z,8.17
2018-12-09T20:50:41.498Z,12.43
2018-12-09T20:53:09.060Z,12.00
2018-12-09T20:55:36.638Z,6.83
2018-12-09T20:58:04.134Z,7.57
2018-12-09T21:00:31.586Z,5.13
2018-12-09T21:02:59.066Z,6.67
2018-12-09T21:05:26.534Z,13.03
2018-12-09T21:07:54.121Z,7.73
2018-12-09T21:10:21.633Z,7.10
2018-12-09T21:12:49.087Z,15.10
2018-12-09T21:15:16.610Z,7.47
2018-12-09T21:17:44.079Z,7.90
2018-12-09T21:20:11.599Z,10.80
2018-12-09T21:22:39.078Z,9.60
2018-12-09T21:25:07.648Z,14.50
2018-12-09T21:27:35.114Z,7.00
2018-12-09T21:30:02.585Z,8.90
2018-12-09T21:32:30.269Z,7.77
2018-12-09T21:34:57.771Z,14.37
2018-12-09T21:37:25.259Z,10.13
2018-12-09T21:39:52.719Z,9.00
2018-12-09T21:42:20.206Z,9.70
2018-12-09T21:44:47.659Z,4.90
2018-12-09T21:47:15.128Z,5.90
2018-12-09T21:49:42.618Z,4.23
2018-12-09T21:52:10.098Z,9.00
2018-12-09T21:54:37.617Z,6.00
2018-12-09T21:57:05.069Z,5.07
2018-12-09T21:59:32.559Z,6.73
2018-12-09T22:02:00.031Z,7.93
2018-12-09T22:04:27.489Z,4.53
2018-12-09T22:06:55.023Z,7.53
2018-12-09T22:09:22.551Z,6.43
2018-12-09T22:11:50.031Z,8.27
2018-12-09T22:14:17.657Z,5.93
2018-12-09T22:16:45.134Z,5.40
2018-12-09T22:19:12.596Z,10.60
2018-12-09T22:21:40.060Z,7.20
2018-12-09T22:24:08.231Z,7.00
2018-12-09T22:26:35.691Z,7.57
2018-12-09T22:29:03.172Z,10.53
2018-12-09T22:31:30.681Z,5.60
2018-12-09T22:33:58.597Z,8.43
2018-12-09T22:36:31.882Z,8.87
2018-12-09T22:41:39.301Z,12.23
2018-12-09T22:44:06.753Z,10.50
2018-12-09T22:46:34.209Z,17.83
2018-12-09T22:49:01.820Z,9.73
2018-12-09T22:51:29.295Z,9.23
2018-12-09T22:53:56.778Z,5.77
2018-12-09T22:56:24.238Z,8.83
2018-12-09T22:58:51.712Z,4.83
2018-12-09T23:01:20.243Z,13.67
2018-12-09T23:03:47.733Z,13.30
2018-12-09T23:06:15.206Z,14.67
2018-12-09T23:08:42.682Z,3.50
2018-12-09T23:11:10.136Z,7.27
2018-12-09T23:13:37.628Z,6.20
2018-12-09T23:16:05.100Z,4.10
2018-12-09T23:18:32.659Z,19.43
2018-12-09T23:21:00.310Z,7.10
2018-12-09T23:23:27.766Z,9.87
2018-12-09T23:25:55.324Z,11.17
2018-12-09T23:28:22.785Z,5.00
2018-12-09T23:30:50.281Z,14.07
2018-12-09T23:33:17.773Z,9.73
2018-12-09T23:35:45.226Z,3.20
2018-12-09T23:38:12.711Z,11.13
2018-12-09T23:40:40.191Z,3.73
2018-12-09T23:43:07.657Z,9.10
2018-12-09T23:45:35.133Z,14.00
2018-12-09T23:48:02.623Z,7.80
2018-12-09T23:50:30.083Z,7.50
2018-12-09T23:52:57.542Z,9.97
2018-12-09T23:55:25.006Z,10.67
2018-12-09T23:57:52.483Z,7.93
